Time;durP1;ratioP1;P1;durP2;ratioP2;P2;SDS_P1;SDS_P2;PMS_P1;PMS_P2;Temp;Humidity;BMP_temperature;BMP_pressure;BME280_temperature;BME280_humidity;BME280_pressure;Samples;Min_cycle;Max_cycle;Signal;HPM_P1;HPM_P2
2021/04/20 00:02:12;;;;;;;6.53;3.00;;;;;;;;;;5113135;28;20420;-57
2021/04/20 00:04:39;;;;;;;9.10;2.87;;;;;;;;;;5112693;28;20447;-57
2021/04/20 00:07:06;;;;;;;5.63;2.50;;;;;;;;;;5112473;28;20126;-57
2021/04/20 00:09:33;;;;;;;4.50;2.10;;;;;;;;;;5112760;28;20032;-57
2021/04/20 00:12:00;;;;;;;6.80;2.42;;;;;;;;;;5112986;28;20028;-57
2021/04/20 00:14:27;;;;;;;6.90;2.20;;;;;;;;;;5116407;28;20032;-57
2021/04/20 00:16:54;;;;;;;10.30;2.80;;;;;;;;;;5116432;28;20035;-57
2021/04/20 00:19:21;;;;;;;9.40;2.20;;;;;;;;;;5116473;28;20072;-57
2021/04/20 00:21:48;;;;;;;8.43;2.47;;;;;;;;;;5116376;28;20039;-57
2021/04/20 00:24:14;;;;;;;6.97;2.80;;;;;;;;;;5116445;28;20505;-57
2021/04/20 00:26:41;;;;;;;8.57;2.90;;;;;;;;;;5116242;28;20386;-57
2021/04/20 00:29:08;;;;;;;11.00;2.90;;;;;;;;;;5116282;28;20115;-57
2021/04/20 00:31:35;;;;;;;7.83;3.00;;;;;;;;;;5116262;28;20023;-57
2021/04/20 00:34:01;;;;;;;4.40;2.63;;;;;;;;;;5116119;28;20035;-57
2021/04/20 00:36:28;;;;;;;11.57;2.63;;;;;;;;;;5116027;28;20024;-57
2021/04/20 00:38:55;;;;;;;10.80;2.67;;;;;;;;;;5116121;28;20030;-57
2021/04/20 00:41:24;;;;;;;8.33;2.83;;;;;;;;;;5115901;28;20031;-57
2021/04/20 00:43:52;;;;;;;6.27;2.87;;;;;;;;;;5115993;28;20020;-57
2021/04/20 00:46:21;;;;;;;7.10;2.43;;;;;;;;;;5115904;28;20385;-57
2021/04/20 00:48:48;;;;;;;6.33;2.37;;;;;;;;;;5115834;28;20031;-57
2021/04/20 00:51:15;;;;;;;11.37;3.27;;;;;;;;;;5115809;28;20015;-57
2021/04/20 00:53:42;;;;;;;7.73;2.57;;;;;;;;;;5115987;28;20034;-57
2021/04/20 00:56:09;;;;;;;7.00;2.57;;;;;;;;;;5115664;28;20070;-57
2021/04/20 00:58:36;;;;;;;8.20;2.60;;;;;;;;;;5115669;28;20031;-57
2021/04/20 01:01:04;;;;;;;6.90;2.47;;;;;;;;;;5115829;28;20485;-57
2021/04/20 01:03:31;;;;;;;5.30;2.33;;;;;;;;;;5115607;28;20020;-57
2021/04/20 01:05:58;;;;;;;8.87;2.33;;;;;;;;;;5115487;27;20031;-57
2021/04/20 01:08:25;;;;;;;11.10;2.73;;;;;;;;;;5115467;28;20055;-57
2021/04/20 01:10:54;;;;;;;4.30;2.30;;;;;;;;;;5115370;28;20016;-57
2021/04/20 01:13:24;;;;;;;6.40;2.37;;;;;;;;;;5115771;28;20378;-57
2021/04/20 01:15:52;;;;;;;6.60;2.47;;;;;;;;;;5115179;28;20032;-57
2021/04/20 01:18:21;;;;;;;6.33;2.50;;;;;;;;;;5115353;28;20016;-57
2021/04/20 01:20:52;;;;;;;9.93;2.50;;;;;;;;;;5115364;28;20081;-57
2021/04/20 01:23:28;;;;;;;3.73;2.27;;;;;;;;;;5114862;28;20020;-57
2021/04/20 01:25:56;;;;;;;12.77;2.90;;;;;;;;;;5115076;28;20046;-57
2021/04/20 01:28:23;;;;;;;5.50;2.33;;;;;;;;;;5115260;28;20098;-57
2021/04/20 01:30:50;;;;;;;4.30;2.43;;;;;;;;;;5115186;28;20054;-57
2021/04/20 01:33:17;;;;;;;5.47;2.47;;;;;;;;;;5115143;28;20030;-57
2021/04/20 01:35:44;;;;;;;7.43;2.67;;;;;;;;;;5114940;28;20031;-57
2021/04/20 01:38:11;;;;;;;5.33;2.40;;;;;;;;;;5114918;28;20026;-56
2021/04/20 01:40:37;;;;;;;5.60;2.83;;;;;;;;;;5114881;28;20035;-56
2021/04/20 01:43:04;;;;;;;3.80;2.33;;;;;;;;;;5115198;28;20054;-56
2021/04/20 01:45:32;;;;;;;8.53;2.80;;;;;;;;;;5114778;28;20027;-56
2021/04/20 01:48:00;;;;;;;4.77;2.33;;;;;;;;;;5114730;28;20103;-57
2021/04/20 01:50:27;;;;;;;9.23;2.70;;;;;;;;;;5114565;28;20037;-56
2021/04/20 01:52:54;;;;;;;9.43;2.70;;;;;;;;;;5114420;28;20463;-57
2021/04/20 01:55:21;;;;;;;10.03;2.27;;;;;;;;;;5114545;28;20069;-57
2021/04/20 01:57:48;;;;;;;6.57;2.90;;;;;;;;;;5114632;28;20039;-57
2021/04/20 02:00:17;;;;;;;4.33;2.30;;;;;;;;;;5114505;28;20028;-56
2021/04/20 02:02:44;;;;;;;5.97;2.57;;;;;;;;;;5114540;28;20026;-56
2021/04/20 02:05:11;;;;;;;5.03;2.27;;;;;;;;;;5114382;28;20106;-56
2021/04/20 02:07:38;;;;;;;6.87;2.93;;;;;;;;;;5113866;27;20044;-56
2021/04/20 02:10:06;;;;;;;11.00;2.53;;;;;;;;;;5114320;28;20028;-57
2021/04/20 02:12:33;;;;;;;6.37;2.37;;;;;;;;;;5096041;28;20085;-56
2021/04/20 02:15:00;;;;;;;5.93;2.80;;;;;;;;;;5114005;28;20543;-56
2021/04/20 02:17:27;;;;;;;9.10;3.10;;;;;;;;;;5114182;28;20397;-56
2021/04/20 02:19:54;;;;;;;6.10;2.90;;;;;;;;;;5114143;28;20443;-57
2021/04/20 02:22:21;;;;;;;4.87;2.60;;;;;;;;;;5114020;28;20024;-57
2021/04/20 02:24:48;;;;;;;6.77;2.80;;;;;;;;;;5113906;28;20015;-57
2021/04/20 02:27:15;;;;;;;6.37;2.40;;;;;;;;;;5113969;28;20372;-56
2021/04/20 02:29:43;;;;;;;6.60;2.40;;;;;;;;;;5113893;28;20472;-57
2021/04/20 02:32:09;;;;;;;4.63;2.80;;;;;;;;;;5113926;28;20099;-56
2021/04/20 02:34:36;;;;;;;5.23;3.10;;;;;;;;;;5113106;28;20549;-56
2021/04/20 02:37:03;;;;;;;5.27;2.67;;;;;;;;;;5113693;28;20027;-56
2021/04/20 02:39:30;;;;;;;7.27;3.07;;;;;;;;;;5113850;28;20023;-56
2021/04/20 02:41:57;;;;;;;4.77;2.93;;;;;;;;;;5113871;28;20107;-56
2021/04/20 02:44:24;;;;;;;8.00;3.20;;;;;;;;;;5113707;28;20019;-56
2021/04/20 02:46:51;;;;;;;6.87;3.63;;;;;;;;;;5113608;28;20371;-56
2021/04/20 02:49:19;;;;;;;6.43;3.40;;;;;;;;;;5113645;28;20020;-56
2021/04/20 02:51:46;;;;;;;9.03;3.53;;;;;;;;;;5113630;28;20031;-56
2021/04/20 02:54:13;;;;;;;15.17;3.70;;;;;;;;;;5113753;28;20050;-56
2021/04/20 02:56:40;;;;;;;6.77;2.77;;;;;;;;;;5113541;28;20043;-56
2021/04/20 02:59:08;;;;;;;5.30;3.20;;;;;;;;;;5113463;28;20441;-56
2021/04/20 03:01:37;;;;;;;9.50;3.20;;;;;;;;;;5113656;28;20023;-56
2021/04/20 03:04:04;;;;;;;7.60;3.90;;;;;;;;;;5113384;28;20027;-56
2021/04/20 03:06:31;;;;;;;9.23;3.33;;;;;;;;;;5112837;28;20067;-57
2021/04/20 03:08:58;;;;;;;6.27;3.60;;;;;;;;;;5113434;28;20084;-56
2021/04/20 03:11:28;;;;;;;7.63;3.43;;;;;;;;;;5113452;28;20098;-56
2021/04/20 03:13:54;;;;;;;8.83;4.03;;;;;;;;;;5113352;28;20038;-56
2021/04/20 03:16:21;;;;;;;7.17;3.60;;;;;;;;;;5113176;28;20035;-56
2021/04/20 03:18:49;;;;;;;7.70;3.83;;;;;;;;;;5113368;28;20031;-57
2021/04/20 03:21:16;;;;;;;8.37;3.50;;;;;;;;;;5113331;28;20027;-57
2021/04/20 03:23:43;;;;;;;7.93;3.90;;;;;;;;;;5113288;28;20023;-56
2021/04/20 03:26:25;;;;;;;7.60;3.83;;;;;;;;;;5113090;28;20371;-56
2021/04/20 03:28:56;;;;;;;10.67;4.97;;;;;;;;;;5113250;28;20032;-56
2021/04/20 03:31:24;;;;;;;9.50;4.30;;;;;;;;;;5113410;28;20024;-57
2021/04/20 03:33:53;;;;;;;6.23;4.20;;;;;;;;;;5113022;28;20027;-57
2021/04/20 03:36:23;;;;;;;8.10;3.93;;;;;;;;;;5112965;28;20039;-57
2021/04/20 03:39:10;;;;;;;7.10;3.77;;;;;;;;;;5113052;28;20382;-57
2021/04/20 03:41:40;;;;;;;6.07;3.50;;;;;;;;;;5113104;28;20023;-57
2021/04/20 03:44:08;;;;;;;14.63;3.87;;;;;;;;;;5113060;28;20011;-57
2021/04/20 03:46:39;;;;;;;7.37;3.87;;;;;;;;;;5114644;28;20031;-57
2021/04/20 03:49:21;;;;;;;7.47;3.53;;;;;;;;;;5117073;28;20031;-57
2021/04/20 03:51:48;;;;;;;11.03;4.23;;;;;;;;;;5116977;28;20083;-57
2021/04/20 03:54:16;;;;;;;7.77;3.60;;;;;;;;;;5116874;28;20024;-56
2021/04/20 03:56:47;;;;;;;8.23;3.90;;;;;;;;;;5116901;28;20032;-57
2021/04/20 03:59:15;;;;;;;12.03;4.80;;;;;;;;;;5116868;28;20035;-57
2021/04/20 04:01:44;;;;;;;14.53;4.23;;;;;;;;;;5116844;28;20509;-57
2021/04/20 04:04:16;;;;;;;7.83;4.17;;;;;;;;;;5116818;28;20043;-57
2021/04/20 04:06:43;;;;;;;10.00;3.87;;;;;;;;;;5116211;27;20054;-57
2021/04/20 04:09:13;;;;;;;9.63;4.10;;;;;;;;;;5116780;28;20046;-57
2021/04/20 04:11:50;;;;;;;6.93;4.07;;;;;;;;;;5116544;28;20027;-57
2021/04/20 04:14:18;;;;;;;8.27;3.80;;;;;;;;;;5116573;28;20028;-57
2021/04/20 04:16:45;;;;;;;8.97;3.80;;;;;;;;;;5116526;28;20178;-57
2021/04/20 04:19:14;;;;;;;8.73;4.23;;;;;;;;;;5116492;28;20055;-57
2021/04/20 04:21:46;;;;;;;6.90;4.00;;;;;;;;;;5116428;28;20386;-57
2021/04/20 04:24:14;;;;;;;9.07;4.20;;;;;;;;;;5116347;28;20036;-57
2021/04/20 04:26:43;;;;;;;9.23;4.30;;;;;;;;;;5116439;28;20027;-57
2021/04/20 04:29:12;;;;;;;6.73;3.87;;;;;;;;;;5116310;28;20020;-57
2021/04/20 04:31:41;;;;;;;5.93;3.70;;;;;;;;;;5116278;28;20359;-57
2021/04/20 04:34:07;;;;;;;9.27;3.50;;;;;;;;;;5116013;28;20028;-57
2021/04/20 04:36:35;;;;;;;5.77;3.33;;;;;;;;;;5116172;28;20466;-57
2021/04/20 04:39:02;;;;;;;5.00;3.17;;;;;;;;;;5116144;28;20554;-57
2021/04/20 04:41:28;;;;;;;6.80;3.53;;;;;;;;;;5116084;28;20099;-57
2021/04/20 04:43:55;;;;;;;7.97;3.83;;;;;;;;;;5116010;28;20483;-57
2021/04/20 04:46:22;;;;;;;8.40;3.30;;;;;;;;;;5115887;28;20027;-57
2021/04/20 04:48:49;;;;;;;6.57;3.43;;;;;;;;;;5115920;28;20038;-57
2021/04/20 04:51:16;;;;;;;7.47;4.00;;;;;;;;;;5115909;28;20020;-57
2021/04/20 04:53:44;;;;;;;8.17;3.80;;;;;;;;;;5115832;28;20027;-57
2021/04/20 04:56:13;;;;;;;7.40;3.50;;;;;;;;;;5115656;28;20428;-57
2021/04/20 04:58:40;;;;;;;6.13;3.50;;;;;;;;;;5114959;28;20026;-57
2021/04/20 05:01:08;;;;;;;8.40;3.70;;;;;;;;;;5115826;28;20045;-57
2021/04/20 05:03:34;;;;;;;7.83;3.20;;;;;;;;;;5115722;28;20094;-57
2021/04/20 05:06:02;;;;;;;8.87;3.47;;;;;;;;;;5115536;28;20024;-57
2021/04/20 05:08:30;;;;;;;14.50;3.27;;;;;;;;;;5115272;27;20063;-57
2021/04/20 05:11:04;;;;;;;14.30;4.03;;;;;;;;;;5115445;28;20027;-57
2021/04/20 05:13:31;;;;;;;8.67;2.57;;;;;;;;;;5115429;28;20391;-57
2021/04/20 05:16:04;;;;;;;8.57;3.40;;;;;;;;;;5115325;28;20433;-57
2021/04/20 05:18:31;;;;;;;8.77;3.00;;;;;;;;;;5115313;28;20363;-57
2021/04/20 05:20:58;;;;;;;12.37;3.20;;;;;;;;;;5097066;28;20470;-57
2021/04/20 05:23:25;;;;;;;7.00;3.43;;;;;;;;;;5115211;28;20413;-57
2021/04/20 05:25:53;;;;;;;8.53;3.43;;;;;;;;;;5115247;28;20034;-57
2021/04/20 05:28:21;;;;;;;10.40;4.00;;;;;;;;;;5115276;28;20016;-57
2021/04/20 05:30:48;;;;;;;8.17;4.33;;;;;;;;;;5115204;28;20370;-57
2021/04/20 05:33:15;;;;;;;9.43;4.37;;;;;;;;;;5115181;28;20035;-57
2021/04/20 05:35:42;;;;;;;8.87;3.50;;;;;;;;;;5115074;28;20039;-57
2021/04/20 05:38:09;;;;;;;9.27;3.70;;;;;;;;;;5115080;28;20039;-57
2021/04/20 05:40:41;;;;;;;14.33;4.30;;;;;;;;;;5115278;28;20023;-57
2021/04/20 05:43:08;;;;;;;10.13;3.33;;;;;;;;;;5114905;28;20474;-57
2021/04/20 05:45:35;;;;;;;7.57;3.33;;;;;;;;;;5114834;28;20371;-57
2021/04/20 05:48:02;;;;;;;7.03;3.27;;;;;;;;;;5114846;28;20110;-57
2021/04/20 05:50:31;;;;;;;7.57;3.57;;;;;;;;;;5114765;28;20035;-57
2021/04/20 05:52:59;;;;;;;8.33;4.53;;;;;;;;;;5114664;28;20084;-57
2021/04/20 05:55:26;;;;;;;7.30;3.07;;;;;;;;;;5114511;28;20089;-57
2021/04/20 05:57:54;;;;;;;10.43;4.23;;;;;;;;;;5114580;28;20020;-57
2021/04/20 06:00:22;;;;;;;5.50;3.30;;;;;;;;;;5114586;28;20455;-57
2021/04/20 06:02:51;;;;;;;7.60;4.33;;;;;;;;;;5114486;28;20031;-57
2021/04/20 06:05:22;;;;;;;6.40;3.33;;;;;;;;;;5114474;28;20050;-57
2021/04/20 06:07:50;;;;;;;8.83;4.27;;;;;;;;;;5114049;27;20486;-57
2021/04/20 06:10:17;;;;;;;5.97;3.77;;;;;;;;;;5114316;28;20032;-57
2021/04/20 06:12:45;;;;;;;5.27;3.50;;;;;;;;;;5114246;28;20032;-57
2021/04/20 06:15:12;;;;;;;5.13;3.60;;;;;;;;;;5114125;28;20426;-57
2021/04/20 06:17:40;;;;;;;9.80;3.87;;;;;;;;;;5114272;28;20020;-57
2021/04/20 06:20:07;;;;;;;5.33;3.53;;;;;;;;;;5114167;28;20088;-57
2021/04/20 06:22:35;;;;;;;8.43;3.50;;;;;;;;;;5114089;28;20054;-57
2021/04/20 06:25:01;;;;;;;6.90;3.30;;;;;;;;;;5113972;28;20019;-57
2021/04/20 06:27:28;;;;;;;5.03;3.27;;;;;;;;;;5114133;28;20028;-57
2021/04/20 06:29:56;;;;;;;7.33;3.53;;;;;;;;;;5113956;28;20015;-57
2021/04/20 06:32:23;;;;;;;9.03;3.77;;;;;;;;;;5113859;28;20077;-57
2021/04/20 06:34:49;;;;;;;5.07;3.13;;;;;;;;;;5113821;28;20032;-57
2021/04/20 06:37:17;;;;;;;9.67;3.97;;;;;;;;;;5114149;28;20024;-57
2021/04/20 06:39:44;;;;;;;6.73;4.53;;;;;;;;;;5113829;28;20408;-57
2021/04/20 06:42:12;;;;;;;6.20;3.43;;;;;;;;;;5113773;28;20126;-57
2021/04/20 06:44:46;;;;;;;8.47;3.50;;;;;;;;;;5113622;28;20501;-57
2021/04/20 06:47:17;;;;;;;4.90;3.10;;;;;;;;;;5113648;28;20462;-57
2021/04/20 06:49:50;;;;;;;8.70;3.90;;;;;;;;;;5113693;28;20275;-57
2021/04/20 06:52:29;;;;;;;5.93;3.50;;;;;;;;;;5114175;28;20038;-57
2021/04/20 06:55:02;;;;;;;6.33;3.57;;;;;;;;;;5113372;28;20038;-57
2021/04/20 06:57:33;;;;;;;9.37;4.20;;;;;;;;;;5113575;28;20043;-57
2021/04/20 07:00:04;;;;;;;8.90;3.50;;;;;;;;;;5113406;28;20023;-57
2021/04/20 07:02:38;;;;;;;6.67;3.20;;;;;;;;;;5113735;28;20031;-57
2021/04/20 07:05:07;;;;;;;6.57;3.97;;;;;;;;;;5113468;28;20031;-57
2021/04/20 07:07:49;;;;;;;8.20;3.80;;;;;;;;;;5112990;27;20095;-57
2021/04/20 07:10:16;;;;;;;7.80;3.97;;;;;;;;;;5113430;28;20050;-57
2021/04/20 07:12:47;;;;;;;9.10;3.60;;;;;;;;;;5113347;28;20024;-57
2021/04/20 07:15:17;;;;;;;7.20;3.40;;;;;;;;;;5113485;28;20035;-57
2021/04/20 07:17:47;;;;;;;10.50;3.83;;;;;;;;;;5113352;28;20012;-57
2021/04/20 07:20:28;;;;;;;6.00;3.77;;;;;;;;;;5095039;28;20513;-57
2021/04/20 07:23:10;;;;;;;5.93;3.53;;;;;;;;;;5119750;28;20068;-57
2021/04/20 07:25:55;;;;;;;8.30;3.30;;;;;;;;;;5120057;28;20048;-57
2021/04/20 07:28:35;;;;;;;10.02;3.83;;;;;;;;;;5120100;28;20031;-57
2021/04/20 07:31:02;;;;;;;10.40;4.73;;;;;;;;;;5120073;28;20016;-57
2021/04/20 07:33:35;;;;;;;6.67;4.03;;;;;;;;;;5120110;28;20074;-57
2021/04/20 07:36:10;;;;;;;11.63;4.50;;;;;;;;;;5119858;28;20032;-57
2021/04/20 07:38:54;;;;;;;6.57;3.63;;;;;;;;;;5120071;28;20019;-57
2021/04/20 07:41:34;;;;;;;9.70;2.88;;;;;;;;;;5119957;28;20020;-57
2021/04/20 07:44:02;;;;;;;6.57;3.00;;;;;;;;;;5120114;28;20420;-57
2021/04/20 07:46:39;;;;;;;7.23;3.10;;;;;;;;;;5120191;28;20416;-57
2021/04/20 07:49:12;;;;;;;5.60;3.17;;;;;;;;;;5119885;28;20077;-57
2021/04/20 07:51:48;;;;;;;6.47;3.37;;;;;;;;;;5119862;28;20099;-57
2021/04/20 07:54:15;;;;;;;6.60;3.10;;;;;;;;;;5119777;28;20102;-57
2021/04/20 07:56:50;;;;;;;7.77;3.70;;;;;;;;;;5119779;28;20028;-57
2021/04/20 07:59:16;;;;;;;;;;;;;;;;;;5120248;28;20054;-57
2021/04/20 08:01:49;;;;;;;6.47;3.10;;;;;;;;;;5119726;28;19904;-57
2021/04/20 08:04:35;;;;;;;9.13;4.27;;;;;;;;;;5119503;28;20490;-57
2021/04/20 08:07:08;;;;;;;8.57;2.93;;;;;;;;;;5119319;27;20457;-57
2021/04/20 08:09:36;;;;;;;8.00;3.30;;;;;;;;;;5119726;28;20028;-57
2021/04/20 08:12:05;;;;;;;8.60;3.40;;;;;;;;;;5119931;28;20094;-57
2021/04/20 08:14:32;;;;;;;8.37;3.87;;;;;;;;;;5119546;28;20037;-57
2021/04/20 08:17:16;;;;;;;8.37;3.60;;;;;;;;;;5119553;28;20439;-57
2021/04/20 08:19:44;;;;;;;11.68;3.80;;;;;;;;;;5119557;28;20023;-57
2021/04/20 08:22:13;;;;;;;7.37;4.53;;;;;;;;;;5119609;28;20024;-57
2021/04/20 08:24:53;;;;;;;8.40;3.63;;;;;;;;;;5119504;28;20367;-57
2021/04/20 08:27:24;;;;;;;7.77;3.83;;;;;;;;;;5119539;28;20024;-57
2021/04/20 08:29:53;;;;;;;6.53;3.90;;;;;;;;;;5119868;28;20037;-57
2021/04/20 08:32:24;;;;;;;9.60;3.67;;;;;;;;;;5118631;28;20031;-57
2021/04/20 08:34:55;;;;;;;7.00;2.87;;;;;;;;;;5115505;28;20501;-57
2021/04/20 08:37:45;;;;;;;6.23;3.27;;;;;;;;;;5116156;28;20034;-57
2021/04/20 08:40:27;;;;;;;6.90;3.50;;;;;;;;;;5115865;28;20482;-57
2021/04/20 08:43:14;;;;;;;9.20;3.30;;;;;;;;;;5116093;28;20102;-57
2021/04/20 08:45:57;;;;;;;7.33;3.30;;;;;;;;;;5115998;28;20399;-57
2021/04/20 08:48:38;;;;;;;10.30;4.20;;;;;;;;;;5115909;28;20030;-57
2021/04/20 08:51:21;;;;;;;14.80;4.10;;;;;;;;;;5115577;28;20349;-57
2021/04/20 08:53:54;;;;;;;9.73;4.07;;;;;;;;;;5115782;28;20390;-57
2021/04/20 08:56:34;;;;;;;9.43;4.33;;;;;;;;;;5115660;28;20071;-57
2021/04/20 08:59:14;;;;;;;12.63;5.80;;;;;;;;;;5116096;28;20042;-57
2021/04/20 09:01:47;;;;;;;10.43;5.37;;;;;;;;;;5115685;28;20084;-57
2021/04/20 09:04:23;;;;;;;11.80;5.90;;;;;;;;;;5115670;28;20450;-56
2021/04/20 09:06:53;;;;;;;14.27;5.63;;;;;;;;;;5115409;28;20023;-57
2021/04/20 09:09:25;;;;;;;10.07;4.73;;;;;;;;;;5115313;28;20052;-57
2021/04/20 09:12:02;;;;;;;12.37;5.10;;;;;;;;;;5115777;28;20036;-57
2021/04/20 09:14:40;;;;;;;10.67;5.40;;;;;;;;;;5115301;28;20048;-57
2021/04/20 09:17:17;;;;;;;12.70;5.90;;;;;;;;;;5115552;28;20101;-57
2021/04/20 09:19:50;;;;;;;9.50;5.20;;;;;;;;;;5115392;28;20027;-57
2021/04/20 09:22:35;;;;;;;8.27;4.40;;;;;;;;;;5115445;28;20032;-57
2021/04/20 09:25:06;;;;;;;10.43;4.55;;;;;;;;;;5115290;28;20027;-57
2021/04/20 09:27:51;;;;;;;10.97;4.90;;;;;;;;;;5115239;28;20038;-57
2021/04/20 09:30:19;;;;;;;7.43;4.22;;;;;;;;;;5115224;28;20035;-57
2021/04/20 09:32:57;;;;;;;6.80;4.23;;;;;;;;;;5096863;28;20490;-57
2021/04/20 09:35:24;;;;;;;7.33;3.77;;;;;;;;;;5115276;28;20355;-57
2021/04/20 09:37:53;;;;;;;5.70;3.50;;;;;;;;;;5114999;28;20378;-57
2021/04/20 09:40:21;;;;;;;9.40;4.10;;;;;;;;;;5115232;28;20027;-57
2021/04/20 09:42:49;;;;;;;7.83;3.90;;;;;;;;;;5114794;28;20028;-57
2021/04/20 09:45:21;;;;;;;10.53;4.00;;;;;;;;;;5114519;28;20524;-57
2021/04/20 09:48:10;;;;;;;8.40;3.97;;;;;;;;;;5114840;28;20031;-57
2021/04/20 09:50:55;;;;;;;8.13;4.00;;;;;;;;;;5114837;28;20417;-57
2021/04/20 09:53:42;;;;;;;8.27;3.50;;;;;;;;;;5114602;28;20023;-57
2021/04/20 09:56:21;;;;;;;8.07;3.23;;;;;;;;;;5097595;28;20077;-57
2021/04/20 09:58:48;;;;;;;8.67;3.83;;;;;;;;;;5114622;28;20024;-57
2021/04/20 10:01:22;;;;;;;6.13;4.37;;;;;;;;;;5114712;28;20371;-57
2021/04/20 10:03:52;;;;;;;8.07;3.50;;;;;;;;;;5114457;28;20039;-57
2021/04/20 10:06:40;;;;;;;5.83;3.20;;;;;;;;;;5114532;28;20297;-57
2021/04/20 10:09:37;;;;;;;6.70;2.87;;;;;;;;;;5113809;27;20083;-57
2021/04/20 10:12:42;;;;;;;6.90;3.80;;;;;;;;;;5068341;28;20040;-57
2021/04/20 10:15:11;;;;;;;7.03;2.93;;;;;;;;;;5011666;28;20042;-57
2021/04/20 10:17:56;;;;;;;10.17;3.13;;;;;;;;;;5011793;28;20029;-57
2021/04/20 10:20:38;;;;;;;5.80;3.35;;;;;;;;;;5075639;28;20035;-57
2021/04/20 10:23:17;;;;;;;7.97;3.40;;;;;;;;;;5114242;28;20135;-57
2021/04/20 10:25:44;;;;;;;8.03;3.37;;;;;;;;;;5113997;28;20035;-57
2021/04/20 10:28:29;;;;;;;7.43;2.97;;;;;;;;;;5114366;28;20036;-57
2021/04/20 10:31:00;;;;;;;5.30;3.17;;;;;;;;;;5114003;28;20035;-57
2021/04/20 10:33:27;;;;;;;5.67;3.10;;;;;;;;;;5113917;28;20088;-56
2021/04/20 10:35:58;;;;;;;4.43;2.60;;;;;;;;;;5113833;28;20081;-57
2021/04/20 10:38:28;;;;;;;8.23;2.93;;;;;;;;;;5113913;28;20035;-57
2021/04/20 10:40:56;;;;;;;5.23;2.70;;;;;;;;;;5113878;28;20038;-57
2021/04/20 10:43:25;;;;;;;5.57;2.83;;;;;;;;;;5113817;28;20391;-57
2021/04/20 10:45:52;;;;;;;5.63;2.43;;;;;;;;;;5114242;28;20037;-57
2021/04/20 10:48:27;;;;;;;5.63;2.77;;;;;;;;;;5113627;28;20256;-57
2021/04/20 10:50:55;;;;;;;7.88;3.20;;;;;;;;;;5113732;28;20035;-57
2021/04/20 10:53:31;;;;;;;5.93;3.10;;;;;;;;;;5113591;28;20027;-57
2021/04/20 10:56:07;;;;;;;5.73;2.90;;;;;;;;;;5112835;28;20635;-57
2021/04/20 10:58:36;;;;;;;8.13;2.80;;;;;;;;;;5113500;28;20241;-57
2021/04/20 11:01:03;;;;;;;5.40;2.77;;;;;;;;;;5113509;28;20343;-57
2021/04/20 11:03:34;;;;;;;4.83;2.77;;;;;;;;;;5113349;28;20394;-57
2021/04/20 11:06:03;;;;;;;5.30;3.03;;;;;;;;;;5113472;28;20333;-57
2021/04/20 11:08:40;;;;;;;6.83;2.87;;;;;;;;;;5112797;28;20081;-57
2021/04/20 11:11:18;;;;;;;4.73;2.30;;;;;;;;;;5113435;28;20662;-57
2021/04/20 11:13:44;;;;;;;4.53;2.60;;;;;;;;;;5113351;28;20722;-56
2021/04/20 11:16:13;;;;;;;5.83;3.40;;;;;;;;;;5113255;28;20286;-57
2021/04/20 11:18:44;;;;;;;6.73;3.00;;;;;;;;;;5113240;28;20290;-57
2021/04/20 11:21:15;;;;;;;6.20;3.07;;;;;;;;;;5113355;28;20255;-57
2021/04/20 11:23:53;;;;;;;9.60;3.03;;;;;;;;;;5113149;28;20576;-57
2021/04/20 11:26:22;;;;;;;4.87;3.47;;;;;;;;;;5094994;28;20275;-57
2021/04/20 11:28:52;;;;;;;6.07;2.97;;;;;;;;;;5113160;28;20256;-56
2021/04/20 11:31:35;;;;;;;5.97;3.43;;;;;;;;;;5113208;28;20343;-57
2021/04/20 11:34:11;;;;;;;6.23;3.17;;;;;;;;;;5113149;28;20259;-57
2021/04/20 11:36:37;;;;;;;;;;;;;;;;;;5113529;28;20288;-56
2021/04/20 11:39:06;;;;;;;7.80;3.53;;;;;;;;;;5113219;28;19904;-57
2021/04/20 11:41:42;;;;;;;7.97;3.10;;;;;;;;;;5113125;28;20260;-57
2021/04/20 11:44:09;;;;;;;6.40;3.27;;;;;;;;;;5112944;28;20244;-57
2021/04/20 11:46:36;;;;;;;6.70;3.10;;;;;;;;;;5113065;28;20336;-56
2021/04/20 11:49:17;;;;;;;7.73;3.10;;;;;;;;;;5113020;28;20259;-57
2021/04/20 11:51:44;;;;;;;11.20;3.90;;;;;;;;;;5112959;28;20252;-57
2021/04/20 11:54:19;;;;;;;9.77;3.47;;;;;;;;;;5112813;28;20248;-57
2021/04/20 11:56:46;;;;;;;9.15;3.03;;;;;;;;;;5112964;28;20267;-57
2021/04/20 11:59:13;;;;;;;8.03;3.03;;;;;;;;;;5112931;28;20399;-57
2021/04/20 12:01:42;;;;;;;6.83;3.27;;;;;;;;;;5113023;28;20599;-57
2021/04/20 12:04:09;;;;;;;5.30;2.60;;;;;;;;;;5112785;28;20723;-57
2021/04/20 12:06:44;;;;;;;4.67;2.90;;;;;;;;;;5112901;28;20263;-57
2021/04/20 12:09:15;;;;;;;8.77;3.28;;;;;;;;;;5116378;27;20308;-57
2021/04/20 12:11:46;;;;;;;7.17;3.00;;;;;;;;;;5116681;28;20059;-57
2021/04/20 12:14:13;;;;;;;5.70;3.17;;;;;;;;;;5098967;28;20252;-56
2021/04/20 12:16:41;;;;;;;7.47;2.87;;;;;;;;;;5116524;28;20638;-57
2021/04/20 12:19:09;;;;;;;7.57;2.40;;;;;;;;;;5116560;28;20739;-57
2021/04/20 12:21:39;;;;;;;6.07;3.00;;;;;;;;;;5116526;28;20252;-57
2021/04/20 12:24:07;;;;;;;5.87;2.37;;;;;;;;;;5116669;28;20250;-57
2021/04/20 12:26:35;;;;;;;7.10;2.50;;;;;;;;;;5116527;28;20247;-57
2021/04/20 12:29:10;;;;;;;8.00;2.80;;;;;;;;;;5116310;28;20244;-57
2021/04/20 12:31:37;;;;;;;8.20;2.63;;;;;;;;;;5116360;28;20629;-56
2021/04/20 12:34:05;;;;;;;5.33;2.47;;;;;;;;;;5116175;28;20256;-56
2021/04/20 12:36:36;;;;;;;6.63;2.70;;;;;;;;;;5116141;28;20284;-57
2021/04/20 12:39:07;;;;;;;7.53;2.93;;;;;;;;;;5116172;28;20256;-57
2021/04/20 12:41:34;;;;;;;5.53;2.60;;;;;;;;;;5116154;28;20313;-57
2021/04/20 12:44:03;;;;;;;4.93;2.50;;;;;;;;;;5115994;28;20260;-57
2021/04/20 12:46:31;;;;;;;4.63;2.30;;;;;;;;;;5116076;28;20248;-57
2021/04/20 12:49:02;;;;;;;14.07;3.03;;;;;;;;;;5115986;28;20730;-57
2021/04/20 12:51:31;;;;;;;5.23;2.40;;;;;;;;;;5115877;28;20297;-57
2021/04/20 12:53:59;;;;;;;6.43;2.40;;;;;;;;;;5115933;28;20279;-56
2021/04/20 12:56:29;;;;;;;6.43;2.50;;;;;;;;;;5115751;28;20276;-57
2021/04/20 12:58:57;;;;;;;6.93;2.90;;;;;;;;;;5115767;28;20407;-57
2021/04/20 13:01:24;;;;;;;9.80;3.60;;;;;;;;;;5115670;28;20252;-57
2021/04/20 13:03:52;;;;;;;6.87;2.70;;;;;;;;;;5115641;28;20248;-57
2021/04/20 13:06:21;;;;;;;9.90;2.90;;;;;;;;;;5115755;28;20339;-57
2021/04/20 13:08:49;;;;;;;14.10;3.37;;;;;;;;;;5115285;27;20280;-57
2021/04/20 13:11:35;;;;;;;4.90;2.73;;;;;;;;;;5115663;28;20248;-57
2021/04/20 13:14:02;;;;;;;11.65;3.38;;;;;;;;;;5115516;28;20263;-57
2021/04/20 13:16:30;;;;;;;17.47;3.10;;;;;;;;;;5115498;28;20063;-57
2021/04/20 13:18:59;;;;;;;11.10;3.40;;;;;;;;;;5114671;28;20248;-57
2021/04/20 13:21:27;;;;;;;10.27;3.20;;;;;;;;;;5115479;28;20024;-57
2021/04/20 13:23:54;;;;;;;8.77;3.57;;;;;;;;;;5115195;28;20020;-57
2021/04/20 13:26:23;;;;;;;11.40;4.07;;;;;;;;;;5115269;28;20030;-57
2021/04/20 13:28:51;;;;;;;9.40;4.00;;;;;;;;;;5115141;28;20024;-57
2021/04/20 13:31:23;;;;;;;12.03;3.97;;;;;;;;;;5115169;28;20028;-57
2021/04/20 13:33:52;;;;;;;10.83;5.10;;;;;;;;;;5115154;28;20058;-57
2021/04/20 13:36:20;;;;;;;10.67;5.50;;;;;;;;;;5115135;28;20067;-57
2021/04/20 13:38:51;;;;;;;8.83;4.90;;;;;;;;;;5115016;28;20020;-57
2021/04/20 13:41:19;;;;;;;16.60;5.90;;;;;;;;;;5115021;28;20024;-57
2021/04/20 13:43:47;;;;;;;15.53;5.03;;;;;;;;;;5114947;28;20093;-57
2021/04/20 13:46:15;;;;;;;11.80;5.30;;;;;;;;;;5114789;28;20028;-57
2021/04/20 13:48:42;;;;;;;10.33;5.27;;;;;;;;;;5114824;28;20092;-57
2021/04/20 13:51:10;;;;;;;13.13;5.00;;;;;;;;;;5114690;28;20386;-57
2021/04/20 13:53:45;;;;;;;15.27;6.57;;;;;;;;;;5114772;28;20026;-57
2021/04/20 13:56:18;;;;;;;14.03;6.67;;;;;;;;;;5114583;28;20027;-57
2021/04/20 13:58:48;;;;;;;22.17;8.50;;;;;;;;;;5114617;28;20381;-57
2021/04/20 14:01:20;;;;;;;19.60;8.93;;;;;;;;;;5114627;28;20028;-57
2021/04/20 14:03:51;;;;;;;14.47;7.17;;;;;;;;;;5114465;28;20023;-57
2021/04/20 14:06:19;;;;;;;12.50;6.70;;;;;;;;;;5114469;28;20035;-57
2021/04/20 14:08:54;;;;;;;12.67;6.67;;;;;;;;;;5113969;27;20086;-58
2021/04/20 14:11:23;;;;;;;10.80;5.33;;;;;;;;;;5114431;28;20031;-57
2021/04/20 14:13:50;;;;;;;17.97;6.53;;;;;;;;;;5114287;28;20016;-58
2021/04/20 14:16:19;;;;;;;12.13;5.83;;;;;;;;;;5114293;28;20032;-57
2021/04/20 14:18:51;;;;;;;13.27;5.57;;;;;;;;;;5114242;28;20028;-58
2021/04/20 14:21:20;;;;;;;10.20;4.70;;;;;;;;;;5114158;28;20032;-58
2021/04/20 14:23:48;;;;;;;15.83;5.10;;;;;;;;;;5114009;28;20027;-58
2021/04/20 14:26:19;;;;;;;13.53;4.30;;;;;;;;;;5114075;28;20024;-58
2021/04/20 14:28:47;;;;;;;6.57;3.30;;;;;;;;;;5114023;28;20038;-57
2021/04/20 14:31:18;;;;;;;11.03;2.73;;;;;;;;;;5113726;28;20019;-57
2021/04/20 14:33:46;;;;;;;9.60;4.17;;;;;;;;;;5113994;28;20024;-57
2021/04/20 14:36:26;;;;;;;6.93;3.43;;;;;;;;;;5113942;28;20118;-57
2021/04/20 14:38:53;;;;;;;8.23;3.60;;;;;;;;;;5113877;28;20027;-57
2021/04/20 14:41:22;;;;;;;6.33;2.90;;;;;;;;;;5113887;28;20092;-57
2021/04/20 14:43:52;;;;;;;7.30;3.77;;;;;;;;;;5113811;28;20024;-57
2021/04/20 14:46:19;;;;;;;8.23;3.90;;;;;;;;;;5113726;28;20024;-57
2021/04/20 14:48:50;;;;;;;10.00;3.90;;;;;;;;;;5113734;28;20035;-57
2021/04/20 14:51:22;;;;;;;6.23;3.43;;;;;;;;;;5113684;28;20393;-57
2021/04/20 14:53:49;;;;;;;7.37;3.23;;;;;;;;;;5113575;28;20030;-58
2021/04/20 14:56:21;;;;;;;9.20;4.23;;;;;;;;;;5113532;28;20035;-58
2021/04/20 14:58:51;;;;;;;7.90;4.70;;;;;;;;;;5113533;28;20126;-57
2021/04/20 15:01:21;;;;;;;8.33;3.87;;;;;;;;;;5113613;28;20031;-57